createdAt,value
2019-03-03T00:02:56.053Z,10.63
2019-03-03T00:08:01.417Z,6.87
2019-03-03T00:13:06.812Z,12.57
2019-03-03T00:18:12.584Z,10.50
2019-03-03T00:23:18.619Z,7.93
2019-03-03T00:28:24.454Z,10.60
2019-03-03T00:33:30.149Z,11.87
2019-03-03T00:38:53.170Z,7.83
2019-03-03T00:44:11.567Z,7.13
2019-03-03T00:49:35.945Z,6.73
2019-03-03T00:55:03.146Z,7.27
2019-03-03T01:00:25.881Z,7.13
2019-03-03T01:05:56.228Z,13.50
2019-03-03T01:11:20.520Z,7.20
2019-03-03T01:16:59.790Z,9.03
2019-03-03T01:22:19.421Z,8.80
2019-03-03T01:27:25.877Z,6.97
2019-03-03T01:32:31.376Z,6.83
2019-03-03T01:37:36.787Z,5.43
2019-03-03T01:42:42.400Z,9.97
2019-03-03T01:47:47.864Z,8.30
2019-03-03T01:52:53.374Z,10.57
2019-03-03T01:57:59.154Z,9.73
2019-03-03T02:03:04.706Z,7.33
2019-03-03T02:08:10.159Z,10.67
2019-03-03T02:13:15.899Z,6.87
2019-03-03T02:18:21.494Z,10.93
2019-03-03T02:23:27.218Z,8.30
2019-03-03T02:28:32.602Z,8.13
2019-03-03T02:33:38.108Z,10.13
2019-03-03T02:38:43.703Z,12.97
2019-03-03T02:43:49.272Z,8.70
2019-03-03T02:48:54.665Z,10.73
2019-03-03T02:54:00.117Z,12.03
2019-03-03T02:59:05.577Z,9.97
2019-03-03T03:04:11.090Z,9.43
2019-03-03T03:09:19.102Z,12.57
2019-03-03T03:14:46.625Z,6.17
2019-03-03T03:20:11.171Z,8.30
2019-03-03T03:25:33.821Z,6.57
2019-03-03T03:30:49.325Z,11.10
2019-03-03T03:36:19.523Z,7.13
2019-03-03T03:41:46.609Z,10.83
2019-03-03T03:46:57.193Z,13.80
2019-03-03T03:52:14.013Z,13.13
2019-03-03T03:57:44.466Z,10.60
2019-03-03T04:03:09.595Z,10.33
2019-03-03T04:08:23.771Z,11.27
2019-03-03T04:13:45.453Z,11.63
2019-03-03T04:19:15.690Z,8.47
2019-03-03T04:24:38.443Z,8.67
2019-03-03T04:29:49.794Z,11.77
2019-03-03T04:35:17.956Z,11.53
2019-03-03T04:40:29.468Z,11.33
2019-03-03T04:45:48.927Z,10.33
2019-03-03T04:51:11.612Z,9.87
2019-03-03T04:56:38.889Z,13.33
2019-03-03T05:01:58.995Z,10.63
2019-03-03T05:07:18.439Z,12.03
2019-03-03T05:12:56.435Z,11.63
2019-03-03T05:18:36.011Z,11.97
2019-03-03T05:23:41.388Z,9.40
2019-03-03T05:28:46.913Z,9.57
2019-03-03T05:33:52.312Z,11.27
2019-03-03T05:38:57.817Z,9.43
2019-03-03T05:44:03.201Z,7.87
2019-03-03T05:49:08.806Z,11.70
2019-03-03T05:54:14.282Z,13.37
2019-03-03T05:59:19.642Z,8.50
2019-03-03T06:04:25.078Z,11.90
2019-03-03T06:09:30.502Z,12.50
2019-03-03T06:14:35.968Z,13.37
2019-03-03T06:19:41.549Z,12.70
2019-03-03T06:24:46.978Z,11.57
2019-03-03T06:29:52.433Z,12.97
2019-03-03T06:34:57.978Z,10.77
2019-03-03T06:40:03.471Z,12.87
2019-03-03T06:45:10.239Z,13.60
2019-03-03T06:50:15.735Z,9.57
2019-03-03T06:55:21.150Z,13.47
2019-03-03T07:00:26.579Z,11.97
2019-03-03T07:05:32.097Z,12.90
2019-03-03T07:10:37.458Z,13.43
2019-03-03T07:15:43.025Z,13.13
2019-03-03T07:20:48.426Z,13.17
2019-03-03T07:25:54.006Z,10.70
2019-03-03T07:30:59.500Z,13.40
2019-03-03T07:36:04.962Z,14.83
2019-03-03T07:41:10.363Z,14.77
2019-03-03T07:46:15.824Z,12.73
2019-03-03T07:51:21.223Z,14.87
2019-03-03T07:56:29.462Z,16.40
2019-03-03T08:01:34.931Z,14.33
2019-03-03T08:06:40.481Z,15.33
2019-03-03T08:11:45.860Z,13.93
2019-03-03T08:16:51.317Z,10.67
2019-03-03T08:21:56.725Z,10.90
2019-03-03T08:27:02.336Z,9.30
2019-03-03T08:32:07.730Z,6.13
2019-03-03T08:37:13.273Z,5.63
2019-03-03T08:42:34.623Z,5.07
2019-03-03T08:47:53.137Z,5.87
2019-03-03T08:53:06.129Z,5.33
2019-03-03T08:58:16.996Z,4.17
2019-03-03T09:03:41.559Z,4.53
2019-03-03T09:08:59.124Z,3.20
2019-03-03T09:14:27.682Z,4.20
2019-03-03T09:19:57.884Z,3.97
2019-03-03T09:25:09.834Z,3.50
2019-03-03T09:30:32.528Z,4.37
2019-03-03T09:35:52.666Z,4.60
2019-03-03T09:41:25.827Z,5.73
2019-03-03T09:46:42.964Z,6.63
2019-03-03T09:52:25.462Z,4.77
2019-03-03T09:57:44.548Z,6.90
2019-03-03T10:03:20.826Z,4.40
2019-03-03T10:08:32.484Z,4.10
2019-03-03T10:13:59.812Z,4.17
2019-03-03T10:19:12.296Z,4.67
2019-03-03T10:24:32.905Z,4.10
2019-03-03T10:30:12.108Z,5.13
2019-03-03T10:35:27.143Z,4.13
2019-03-03T10:40:57.474Z,7.10
2019-03-03T10:46:13.595Z,6.83
2019-03-03T10:51:33.399Z,5.23
2019-03-03T10:57:01.149Z,4.50
2019-03-03T11:02:28.292Z,4.00
2019-03-03T11:08:07.706Z,2.57
2019-03-03T11:13:30.805Z,2.17
2019-03-03T11:19:01.540Z,4.00
2019-03-03T11:24:40.859Z,2.17
2019-03-03T11:30:00.233Z,3.10
2019-03-03T11:35:23.538Z,3.40
2019-03-03T11:40:46.395Z,4.67
2019-03-03T11:46:19.677Z,2.47
2019-03-03T11:51:48.436Z,3.43
2019-03-03T11:56:59.597Z,4.93
2019-03-03T12:02:35.998Z,3.87
2019-03-03T12:08:00.299Z,5.70
2019-03-03T12:13:17.700Z,3.53
2019-03-03T12:18:31.059Z,3.07
2019-03-03T12:24:04.444Z,2.60
2019-03-03T12:29:28.815Z,3.10
2019-03-03T12:34:41.177Z,2.10
2019-03-03T12:40:11.343Z,2.27
2019-03-03T12:45:34.066Z,2.40
2019-03-03T12:50:55.706Z,2.50
2019-03-03T12:56:26.111Z,2.63
2019-03-03T13:02:05.409Z,5.27
2019-03-03T13:07:28.367Z,5.93
2019-03-03T13:12:50.171Z,6.83
2019-03-03T13:18:26.755Z,4.83
2019-03-03T13:23:57.099Z,4.73
2019-03-03T13:29:07.711Z,3.97
2019-03-03T13:34:20.571Z,5.47
2019-03-03T13:39:56.976Z,5.23
2019-03-03T13:45:02.352Z,3.00
2019-03-03T13:50:10.900Z,4.93
2019-03-03T13:55:16.604Z,4.23
2019-03-03T14:00:22.642Z,4.30
2019-03-03T14:05:28.118Z,6.90
2019-03-03T14:10:33.672Z,5.43
2019-03-03T14:15:39.131Z,5.13
2019-03-03T14:20:44.511Z,5.30
2019-03-03T14:25:49.935Z,5.23
2019-03-03T14:30:55.400Z,6.23
2019-03-03T14:36:00.859Z,5.13
2019-03-03T14:41:06.341Z,4.57
2019-03-03T14:46:11.884Z,10.00
2019-03-03T14:51:17.374Z,8.57
2019-03-03T14:56:22.783Z,11.23
2019-03-03T15:01:28.249Z,9.73
2019-03-03T15:06:33.709Z,10.13
2019-03-03T15:11:39.411Z,9.57
2019-03-03T15:16:44.827Z,9.70
2019-03-03T15:21:50.224Z,9.90
2019-03-03T15:26:55.801Z,10.17
2019-03-03T15:32:01.314Z,9.73
2019-03-03T15:37:11.327Z,10.13
2019-03-03T15:42:16.967Z,11.07
2019-03-03T15:47:22.483Z,11.43
2019-03-03T15:52:27.886Z,12.33
2019-03-03T15:57:33.377Z,9.90
2019-03-03T16:02:38.747Z,8.50
2019-03-03T16:07:44.166Z,9.80
2019-03-03T16:12:49.570Z,10.43
2019-03-03T16:17:55.053Z,9.00
2019-03-03T16:23:00.622Z,10.07
2019-03-03T16:28:06.059Z,7.73
2019-03-03T16:33:20.260Z,7.83
2019-03-03T16:38:18.687Z,9.67
2019-03-03T16:43:24.189Z,13.83
2019-03-03T16:48:29.698Z,11.63
2019-03-03T16:53:35.249Z,7.33
2019-03-03T16:58:40.734Z,10.57
2019-03-03T17:03:46.219Z,12.47
2019-03-03T17:08:51.656Z,6.40
2019-03-03T17:13:57.072Z,8.87
2019-03-03T17:19:02.527Z,12.20
2019-03-03T17:24:08.040Z,8.37
2019-03-03T17:29:13.550Z,8.57
2019-03-03T17:34:19.027Z,7.37
2019-03-03T17:39:24.453Z,10.97
2019-03-03T17:44:29.850Z,12.67
2019-03-03T17:49:35.420Z,10.20
2019-03-03T17:54:40.948Z,11.77
2019-03-03T17:59:46.356Z,11.23
2019-03-03T18:04:51.770Z,12.00
2019-03-03T18:09:57.418Z,10.87
2019-03-03T18:15:02.968Z,11.67
2019-03-03T18:20:09.644Z,8.70
2019-03-03T18:25:15.501Z,7.00
2019-03-03T18:30:22.529Z,7.70
2019-03-03T18:35:28.293Z,13.20
2019-03-03T18:40:33.844Z,8.60
2019-03-03T18:45:39.244Z,12.57
2019-03-03T18:50:44.666Z,10.77
2019-03-03T18:55:50.019Z,10.57
2019-03-03T19:00:55.403Z,9.53
2019-03-03T19:06:00.772Z,13.63
2019-03-03T19:11:06.359Z,12.10
2019-03-03T19:16:11.905Z,9.13
2019-03-03T19:21:17.279Z,9.13
2019-03-03T19:26:22.749Z,10.67
2019-03-03T19:31:28.255Z,10.47
2019-03-03T19:36:33.743Z,9.93
2019-03-03T19:41:39.220Z,7.67
2019-03-03T19:46:44.648Z,6.30
2019-03-03T19:51:50.016Z,8.27
2019-03-03T19:56:57.230Z,8.20
2019-03-03T20:02:02.671Z,9.87
2019-03-03T20:07:08.088Z,11.63
2019-03-03T20:12:13.506Z,7.43
2019-03-03T20:17:18.954Z,7.90
2019-03-03T20:22:24.423Z,7.67
2019-03-03T20:27:29.970Z,3.80
2019-03-03T20:32:35.423Z,6.30
2019-03-03T20:37:40.878Z,6.33
2019-03-03T20:42:46.281Z,5.23
2019-03-03T20:47:51.691Z,4.30
2019-03-03T20:52:57.147Z,6.50
2019-03-03T20:58:02.669Z,5.37
2019-03-03T21:03:08.068Z,4.40
2019-03-03T21:08:13.540Z,3.50
2019-03-03T21:13:18.904Z,4.47
2019-03-03T21:18:24.391Z,5.20
2019-03-03T21:23:29.802Z,5.77
2019-03-03T21:28:35.206Z,4.37
2019-03-03T21:33:40.618Z,3.77
2019-03-03T21:38:46.109Z,5.33
2019-03-03T21:43:51.514Z,4.23
2019-03-03T21:48:56.994Z,4.47
2019-03-03T21:54:02.443Z,4.43
2019-03-03T21:59:07.841Z,3.83
2019-03-03T22:04:13.270Z,4.80
2019-03-03T22:09:18.704Z,4.73
2019-03-03T22:14:24.080Z,3.10
2019-03-03T22:19:29.432Z,5.40
2019-03-03T22:24:34.832Z,4.43
2019-03-03T22:29:40.225Z,5.33
2019-03-03T22:34:45.667Z,5.87
2019-03-03T22:39:51.116Z,6.63
2019-03-03T22:44:56.568Z,4.00
2019-03-03T22:50:01.946Z,4.83
2019-03-03T22:55:08.041Z,6.53
2019-03-03T23:00:43.331Z,5.33
2019-03-03T23:06:35.903Z,5.27
2019-03-03T23:12:24.979Z,3.97
2019-03-03T23:17:56.249Z,5.90
2019-03-03T23:24:18.683Z,5.13
2019-03-03T23:29:24.051Z,5.83
2019-03-03T23:34:29.496Z,8.17
2019-03-03T23:39:34.913Z,5.03
2019-03-03T23:44:40.344Z,5.10
2019-03-03T23:49:45.827Z,5.60
2019-03-03T23:54:51.182Z,5.07
2019-03-03T23:59:56.566Z,7.73
